Harper, West Virginia
Current Conditions -  °F | °C
As of 2:51 AM on Tuesday 21 Oct 2014 (Local Time) from KBKW Reporting Station
Clear Clear  
Wind Chill: 45°   Ceiling: Unl
Heat Index: 49°   Visibility: 10mi
Dew Point: 44°   Wind: 9mph
Humidity: 83%   Direction: 220°SW
Pressure: 29.95"   Gusts: NA
Location:  37.8°N, 81.26°W
Report Text: KBKW 210651Z AUTO 22008KT 10SM CLR 09/07 A2995 RMK AO2 SLP132 T00940067 TSNO
Loading
Personal Weather Stations






























Interactive Weather Map New forecast layout! Learn more

10-Day Weather Forecast

Advertisements
Track Severe Weather on mobile